createdAt,value
2023-04-02T00:01:48.462Z,1.83
2023-04-02T00:04:20.201Z,1.23
2023-04-02T00:06:49.247Z,1.63
2023-04-02T00:09:19.278Z,3.40
2023-04-02T00:11:50.258Z,3.53
2023-04-02T00:14:22.997Z,5.07
2023-04-02T00:16:52.290Z,4.50
2023-04-02T00:19:31.426Z,6.43
2023-04-02T00:22:00.432Z,6.37
2023-04-02T00:24:28.990Z,5.90
2023-04-02T00:26:57.346Z,5.53
2023-04-02T00:29:25.353Z,6.80
2023-04-02T00:31:54.402Z,4.90
2023-04-02T00:34:27.168Z,5.47
2023-04-02T00:36:55.694Z,3.30
2023-04-02T00:39:26.195Z,6.53
2023-04-02T00:41:59.584Z,4.27
2023-04-02T00:44:29.968Z,6.53
2023-04-02T00:46:58.801Z,8.93
2023-04-02T00:49:34.771Z,8.20
2023-04-02T00:52:04.221Z,8.77
2023-04-02T00:54:33.986Z,8.13
2023-04-02T00:57:02.815Z,7.40
2023-04-02T00:59:32.971Z,6.20
2023-04-02T01:02:03.164Z,7.23
2023-04-02T01:04:34.886Z,4.53
2023-04-02T01:07:08.043Z,4.87
2023-04-02T01:09:53.072Z,3.53
2023-04-02T01:12:28.450Z,5.30
2023-04-02T01:15:01.428Z,4.40
2023-04-02T01:17:43.920Z,8.03
2023-04-02T01:20:19.724Z,3.27
2023-04-02T01:22:49.832Z,3.13
2023-04-02T01:25:19.654Z,3.50
2023-04-02T01:27:49.126Z,2.80
2023-04-02T01:30:19.364Z,3.53
2023-04-02T01:32:47.843Z,3.17
2023-04-02T01:35:16.394Z,2.93
2023-04-02T01:37:58.700Z,2.93
2023-04-02T01:40:34.239Z,2.77
2023-04-02T01:43:13.335Z,2.80
2023-04-02T01:45:41.709Z,3.10
2023-04-02T01:48:20.249Z,2.67
2023-04-02T01:50:49.864Z,2.97
2023-04-02T01:53:18.411Z,2.60
2023-04-02T01:55:54.499Z,1.67
2023-04-02T01:58:25.135Z,2.87
2023-04-02T02:00:55.214Z,3.03
2023-04-02T02:03:23.855Z,4.73
2023-04-02T02:05:51.905Z,5.03
2023-04-02T02:08:33.214Z,8.50
2023-04-02T02:11:02.939Z,5.53
2023-04-02T02:13:31.950Z,4.17
2023-04-02T02:16:01.249Z,4.20
2023-04-02T02:18:30.249Z,3.50
2023-04-02T02:21:00.111Z,2.80
2023-04-02T02:23:30.336Z,2.07
2023-04-02T02:25:59.759Z,2.40
2023-04-02T02:28:32.129Z,2.40
2023-04-02T02:31:02.151Z,5.67
2023-04-02T02:33:31.453Z,6.07
2023-04-02T02:36:09.928Z,5.23
2023-04-02T02:38:42.945Z,6.10
2023-04-02T02:41:28.120Z,5.93
2023-04-02T02:44:01.057Z,8.10
2023-04-02T02:46:30.579Z,6.03
2023-04-02T02:49:00.135Z,6.20
2023-04-02T02:51:30.277Z,6.23
2023-04-02T02:54:00.255Z,7.33
2023-04-02T02:56:29.526Z,7.57
2023-04-02T02:58:58.413Z,5.67
2023-04-02T03:01:28.385Z,9.13
2023-04-02T03:03:57.028Z,17.20
2023-04-02T03:06:25.912Z,11.97
2023-04-02T03:09:12.595Z,16.80
2023-04-02T03:11:57.562Z,17.47
2023-04-02T03:14:32.946Z,11.70
2023-04-02T03:17:17.439Z,9.23
2023-04-02T03:19:47.524Z,9.57
2023-04-02T03:22:30.340Z,9.80
2023-04-02T03:25:03.128Z,4.50
2023-04-02T03:27:36.075Z,5.43
2023-04-02T03:30:06.292Z,7.53
2023-04-02T03:32:36.068Z,7.73
2023-04-02T03:35:05.959Z,8.47
2023-04-02T03:37:35.312Z,8.50
2023-04-02T03:40:07.296Z,10.60
2023-04-02T03:42:40.311Z,12.53
2023-04-02T03:45:13.033Z,10.23
2023-04-02T03:47:43.067Z,9.07
2023-04-02T03:50:13.174Z,9.53
2023-04-02T03:52:42.162Z,8.60
2023-04-02T03:55:17.658Z,5.60
2023-04-02T03:57:49.769Z,7.00
2023-04-02T04:00:25.600Z,6.00
2023-04-02T04:05:22.548Z,3.27
2023-04-02T04:07:51.936Z,6.17
2023-04-02T04:10:21.371Z,4.50
2023-04-02T04:12:51.008Z,6.90
2023-04-02T04:15:24.051Z,3.83
2023-04-02T04:17:56.810Z,3.30
2023-04-02T04:20:26.791Z,3.90
2023-04-02T04:22:58.003Z,5.00
2023-04-02T04:25:29.703Z,5.33
2023-04-02T04:28:04.069Z,5.73
2023-04-02T04:30:52.532Z,6.10
2023-04-02T04:33:23.573Z,7.00
2023-04-02T04:35:56.608Z,5.43
2023-04-02T04:38:35.282Z,5.93
2023-04-02T04:41:05.403Z,7.10
2023-04-02T04:43:34.903Z,6.33
2023-04-02T04:46:05.060Z,9.67
2023-04-02T04:48:37.809Z,10.73
2023-04-02T04:51:07.742Z,16.87
2023-04-02T04:53:37.238Z,14.23
2023-04-02T04:56:18.917Z,16.67
2023-04-02T04:58:38.228Z,18.67
2023-04-02T05:01:13.899Z,39.77
2023-04-02T05:04:02.297Z,21.87
2023-04-02T05:08:59.342Z,15.93
2023-04-02T05:11:28.710Z,11.83
2023-04-02T05:14:01.530Z,8.70
2023-04-02T05:16:34.514Z,8.43
2023-04-02T05:19:04.736Z,7.47
2023-04-02T05:21:40.793Z,8.13
2023-04-02T05:24:22.636Z,7.47
2023-04-02T05:29:25.591Z,8.38
2023-04-02T05:31:58.373Z,8.10
2023-04-02T05:34:28.651Z,7.03
2023-04-02T05:36:57.189Z,8.63
2023-04-02T05:39:26.269Z,9.23
2023-04-02T05:42:08.847Z,9.87
2023-04-02T05:44:42.239Z,8.20
2023-04-02T05:47:21.278Z,5.70
2023-04-02T05:49:51.653Z,6.17
2023-04-02T05:52:23.964Z,6.10
2023-04-02T05:54:53.727Z,6.27
2023-04-02T05:57:39.546Z,4.10
2023-04-02T05:59:55.317Z,4.43
2023-04-02T06:02:25.532Z,4.77
2023-04-02T06:04:57.898Z,6.00
2023-04-02T06:07:28.733Z,4.67
2023-04-02T06:10:11.193Z,5.50
2023-04-02T06:12:44.555Z,6.90
2023-04-02T06:15:16.678Z,7.33
2023-04-02T06:17:46.648Z,8.40
2023-04-02T06:20:19.035Z,5.90
2023-04-02T06:22:51.727Z,6.43
2023-04-02T06:25:30.605Z,5.73
2023-04-02T06:28:00.515Z,4.77
2023-04-02T06:30:32.903Z,5.30
2023-04-02T06:33:01.533Z,5.50
2023-04-02T06:35:30.406Z,6.53
2023-04-02T06:37:59.807Z,5.10
2023-04-02T06:40:29.782Z,4.53
2023-04-02T06:42:59.879Z,5.67
2023-04-02T06:45:29.830Z,4.67
2023-04-02T06:47:59.585Z,5.23
2023-04-02T06:50:31.573Z,4.63
2023-04-02T06:53:01.253Z,3.97
2023-04-02T06:55:40.405Z,4.33
2023-04-02T06:58:10.269Z,4.57
2023-04-02T07:00:40.271Z,5.17
2023-04-02T07:03:10.394Z,4.50
2023-04-02T07:05:40.427Z,4.60
2023-04-02T07:08:08.944Z,4.10
2023-04-02T07:10:37.774Z,5.03
2023-04-02T07:13:05.838Z,3.30
2023-04-02T07:15:34.471Z,4.17
2023-04-02T07:18:03.395Z,7.80
2023-04-02T07:20:33.314Z,4.47
2023-04-02T07:23:01.258Z,5.83
2023-04-02T07:25:29.644Z,3.63
2023-04-02T07:27:58.032Z,4.33
2023-04-02T07:30:26.026Z,3.67
2023-04-02T07:32:54.452Z,4.10
2023-04-02T07:35:23.301Z,3.50
2023-04-02T07:37:53.130Z,5.20
2023-04-02T07:40:23.289Z,2.97
2023-04-02T07:42:52.127Z,3.43
2023-04-02T07:45:20.872Z,2.83
2023-04-02T07:47:48.832Z,3.23
2023-04-02T07:50:17.370Z,2.80
2023-04-02T07:52:45.877Z,1.83
2023-04-02T07:55:15.265Z,3.53
2023-04-02T07:57:51.617Z,2.27
2023-04-02T08:00:21.145Z,2.17
2023-04-02T08:02:49.848Z,3.90
2023-04-02T08:05:18.911Z,3.57
2023-04-02T08:07:48.745Z,3.43
2023-04-02T08:10:18.279Z,2.10
2023-04-02T08:12:46.814Z,2.07
2023-04-02T08:15:16.458Z,5.43
2023-04-02T08:17:44.730Z,1.13
2023-04-02T08:20:20.606Z,1.00
2023-04-02T08:22:49.756Z,1.60
2023-04-02T08:32:41.650Z,2.00
2023-04-02T08:35:11.351Z,3.23
2023-04-02T08:37:39.846Z,2.57
2023-04-02T08:40:09.318Z,1.43
2023-04-02T08:42:39.462Z,1.57
2023-04-02T08:45:24.297Z,1.10
2023-04-02T08:47:44.769Z,1.10
2023-04-02T08:50:17.580Z,1.30
2023-04-02T08:52:46.740Z,2.27
2023-04-02T08:57:49.900Z,1.27
2023-04-02T09:00:29.278Z,1.53
2023-04-02T09:02:59.337Z,1.00
2023-04-02T09:05:29.697Z,1.67
2023-04-02T09:08:00.211Z,0.80
2023-04-02T09:10:30.329Z,2.07
2023-04-02T09:13:01.997Z,1.03
2023-04-02T09:15:31.533Z,1.00
2023-04-02T09:18:01.523Z,1.10
2023-04-02T09:20:30.771Z,0.83
2023-04-02T09:22:59.033Z,1.83
2023-04-02T09:25:30.174Z,1.93
2023-04-02T09:28:00.147Z,3.57
2023-04-02T09:30:33.183Z,1.30
2023-04-02T09:33:05.301Z,1.57
2023-04-02T09:35:34.656Z,1.87
2023-04-02T09:38:10.795Z,0.80
2023-04-02T09:40:46.576Z,0.60
2023-04-02T09:43:16.533Z,0.63
2023-04-02T09:45:45.904Z,0.90
2023-04-02T09:48:16.024Z,1.10
2023-04-02T09:50:44.652Z,2.73
2023-04-02T09:53:26.734Z,1.20
2023-04-02T09:56:14.542Z,1.67
2023-04-02T09:58:44.389Z,2.77
2023-04-02T10:01:17.530Z,1.67
2023-04-02T10:03:47.087Z,0.93
2023-04-02T10:06:18.562Z,1.10
2023-04-02T10:08:46.800Z,1.60
2023-04-02T10:11:16.833Z,1.00
2023-04-02T10:13:53.383Z,1.33
2023-04-02T10:16:31.015Z,1.40
2023-04-02T10:19:01.632Z,1.40
2023-04-02T10:21:31.202Z,0.60
2023-04-02T10:24:01.343Z,2.20
2023-04-02T10:26:47.299Z,1.53
2023-04-02T10:29:23.764Z,1.17
2023-04-02T10:32:10.570Z,2.10
2023-04-02T10:34:43.023Z,1.97
2023-04-02T10:37:13.117Z,2.47
2023-04-02T10:39:46.162Z,1.00
2023-04-02T10:42:18.880Z,1.53
2023-04-02T10:45:05.358Z,1.30
2023-04-02T10:47:51.697Z,2.63
2023-04-02T10:50:31.737Z,0.97
2023-04-02T10:53:03.828Z,3.10
2023-04-02T10:55:33.980Z,1.47
2023-04-02T10:58:04.213Z,0.70
2023-04-02T11:00:34.327Z,2.13
2023-04-02T11:03:04.748Z,5.50
2023-04-02T11:05:47.199Z,1.40
2023-04-02T11:08:19.830Z,3.00
2023-04-02T11:10:49.968Z,1.27
2023-04-02T11:13:19.979Z,1.53
2023-04-02T11:15:48.747Z,1.33
2023-04-02T11:18:18.721Z,1.03
2023-04-02T11:20:51.242Z,0.93
2023-04-02T11:23:20.700Z,0.93
2023-04-02T11:25:50.309Z,1.53
2023-04-02T11:28:24.625Z,1.27
2023-04-02T11:30:52.805Z,0.93
2023-04-02T11:33:39.025Z,3.20
2023-04-02T11:36:04.694Z,2.80
2023-04-02T11:38:52.233Z,1.13
2023-04-02T11:41:22.226Z,1.23
2023-04-02T11:43:50.976Z,1.77
2023-04-02T11:46:32.799Z,0.60
2023-04-02T11:49:19.857Z,0.83
2023-04-02T11:51:50.885Z,2.73
2023-04-02T11:54:27.658Z,1.27
2023-04-02T11:56:57.730Z,2.53
2023-04-02T11:59:31.103Z,3.47
2023-04-02T12:02:17.854Z,1.30
2023-04-02T12:04:57.061Z,6.67
2023-04-02T12:07:27.668Z,2.83
2023-04-02T12:09:57.277Z,2.47
2023-04-02T12:12:26.901Z,2.23
2023-04-02T12:14:59.540Z,5.83
2023-04-02T12:17:33.042Z,2.87
2023-04-02T12:20:13.834Z,1.07
2023-04-02T12:22:43.286Z,1.17
2023-04-02T12:25:29.778Z,1.43
2023-04-02T12:28:09.492Z,1.30
2023-04-02T12:30:39.343Z,2.50
2023-04-02T12:33:17.320Z,2.27
2023-04-02T12:35:46.775Z,1.70
2023-04-02T12:38:20.227Z,1.90
2023-04-02T12:40:56.668Z,0.80
2023-04-02T12:43:26.189Z,1.20
2023-04-02T12:45:55.707Z,0.67
2023-04-02T12:48:24.367Z,0.73
2023-04-02T12:50:53.475Z,1.40
2023-04-02T12:55:50.871Z,1.17
2023-04-02T12:58:40.110Z,0.70
2023-04-02T13:01:13.453Z,1.83
2023-04-02T13:03:42.446Z,2.43
2023-04-02T13:06:21.316Z,2.37
2023-04-02T13:08:50.001Z,0.93
2023-04-02T13:11:18.396Z,1.47
2023-04-02T13:13:47.372Z,1.70
2023-04-02T13:16:20.364Z,1.80
2023-04-02T13:18:49.462Z,2.27
2023-04-02T13:21:19.306Z,3.63
2023-04-02T13:23:47.554Z,1.77
2023-04-02T13:26:19.873Z,0.87
2023-04-02T13:28:58.181Z,2.30
2023-04-02T13:31:26.737Z,2.50
2023-04-02T13:33:55.206Z,0.80
2023-04-02T13:36:23.636Z,1.70
2023-04-02T13:38:51.685Z,0.80
2023-04-02T13:41:24.438Z,0.70
2023-04-02T13:43:53.326Z,2.93
2023-04-02T13:46:22.958Z,2.87
2023-04-02T13:48:51.890Z,1.80
2023-04-02T13:51:21.790Z,2.43
2023-04-02T13:53:51.238Z,1.50
2023-04-02T13:56:22.511Z,1.47
2023-04-02T13:58:51.236Z,2.03
2023-04-02T14:01:21.341Z,0.87
2023-04-02T14:03:49.771Z,2.80
2023-04-02T14:06:38.231Z,1.23
2023-04-02T14:09:07.960Z,0.60
2023-04-02T14:11:46.446Z,1.63
2023-04-02T14:14:22.079Z,0.93
2023-04-02T14:17:07.139Z,3.00
2023-04-02T14:19:41.296Z,2.00
2023-04-02T14:22:20.163Z,2.07
2023-04-02T14:25:06.719Z,0.90
2023-04-02T14:27:53.634Z,2.17
2023-04-02T14:30:23.671Z,0.93
2023-04-02T14:32:53.717Z,1.03
2023-04-02T14:35:39.568Z,1.70
2023-04-02T14:38:12.846Z,2.43
2023-04-02T14:40:50.392Z,0.93
2023-04-02T14:43:33.161Z,1.83
2023-04-02T14:46:03.324Z,2.10
2023-04-02T14:48:45.695Z,1.50
2023-04-02T14:51:15.513Z,2.50
2023-04-02T14:53:52.174Z,1.07
2023-04-02T14:56:22.336Z,0.70
2023-04-02T14:58:52.620Z,1.73
2023-04-02T15:01:25.413Z,2.00
2023-04-02T15:04:02.622Z,2.50
2023-04-02T15:06:38.646Z,2.10
2023-04-02T15:09:23.920Z,3.37
2023-04-02T15:11:53.732Z,3.17
2023-04-02T15:14:26.887Z,1.67
2023-04-02T15:16:55.409Z,1.17
2023-04-02T15:19:23.898Z,2.30
2023-04-02T15:22:04.501Z,1.40
2023-04-02T15:24:49.319Z,1.80
2023-04-02T15:27:25.799Z,1.10
2023-04-02T15:30:12.939Z,2.47
2023-04-02T15:32:42.438Z,1.43
2023-04-02T15:35:24.719Z,2.50
2023-04-02T15:37:57.597Z,1.90
2023-04-02T15:40:30.593Z,2.93
2023-04-02T15:43:09.932Z,7.80
2023-04-02T15:45:46.018Z,3.53
2023-04-02T15:48:27.976Z,6.53
2023-04-02T15:50:58.444Z,3.27
2023-04-02T15:53:46.448Z,1.73
2023-04-02T15:56:19.444Z,3.93
2023-04-02T15:58:58.465Z,3.13
2023-04-02T16:01:42.843Z,2.77
2023-04-02T16:04:12.880Z,3.87
2023-04-02T16:06:53.301Z,5.53
2023-04-02T16:09:24.087Z,5.23
2023-04-02T16:11:53.952Z,3.07
2023-04-02T16:14:27.767Z,8.60
2023-04-02T16:16:57.888Z,5.10
2023-04-02T16:19:27.793Z,8.80
2023-04-02T16:22:03.756Z,9.73
2023-04-02T16:24:32.229Z,16.60
2023-04-02T16:27:09.610Z,5.63
2023-04-02T16:29:55.614Z,3.30
2023-04-02T16:32:27.018Z,3.07
2023-04-02T16:35:38.133Z,1.77
2023-04-02T16:37:45.749Z,1.80
2023-04-02T16:40:31.016Z,1.40
2023-04-02T16:43:09.864Z,1.37
2023-04-02T16:45:45.894Z,1.77
2023-04-02T16:48:16.005Z,1.13
2023-04-02T16:50:51.923Z,2.77
2023-04-02T16:53:30.749Z,2.40
2023-04-02T16:56:01.057Z,2.90
2023-04-02T16:58:33.484Z,1.47
2023-04-02T17:01:15.603Z,2.73
2023-04-02T17:03:48.286Z,1.90
2023-04-02T17:06:18.433Z,2.13
2023-04-02T17:09:06.944Z,3.03
2023-04-02T17:11:52.263Z,6.40
2023-04-02T17:14:22.056Z,2.70
2023-04-02T17:16:52.129Z,5.20
2023-04-02T17:19:21.523Z,4.60
2023-04-02T17:21:52.862Z,6.70
2023-04-02T17:24:22.706Z,5.50
2023-04-02T17:27:09.250Z,5.40
2023-04-02T17:29:39.882Z,3.40
2023-04-02T17:32:09.968Z,3.97
2023-04-02T17:34:38.343Z,4.90
2023-04-02T17:37:14.153Z,8.07
2023-04-02T17:39:43.981Z,9.47
2023-04-02T17:42:28.385Z,9.77
2023-04-02T17:45:10.304Z,5.40
2023-04-02T17:47:43.550Z,4.93
2023-04-02T17:50:19.826Z,6.07
2023-04-02T17:52:51.277Z,4.40
2023-04-02T17:55:21.605Z,6.00
2023-04-02T17:57:51.104Z,5.53
2023-04-02T18:00:24.707Z,14.30
2023-04-02T18:03:12.201Z,14.70
2023-04-02T18:05:42.044Z,15.47
2023-04-02T18:08:22.603Z,17.27
2023-04-02T18:10:58.469Z,12.57
2023-04-02T18:13:31.204Z,20.03
2023-04-02T18:16:14.190Z,11.53
2023-04-02T18:18:47.054Z,9.33
2023-04-02T18:21:26.311Z,10.27
2023-04-02T18:24:13.002Z,9.43
2023-04-02T18:26:58.477Z,7.30
2023-04-02T18:29:45.146Z,12.03
2023-04-02T18:32:31.416Z,8.03
2023-04-02T18:35:16.937Z,10.27
2023-04-02T18:37:49.441Z,15.27
2023-04-02T18:40:25.263Z,11.07
2023-04-02T18:42:59.220Z,9.13
2023-04-02T18:45:35.498Z,10.23
2023-04-02T18:48:06.038Z,10.33
2023-04-02T18:50:39.885Z,9.83
2023-04-02T18:53:16.063Z,10.67
2023-04-02T18:55:45.888Z,7.07
2023-04-02T18:58:16.104Z,7.87
2023-04-02T19:00:45.466Z,7.67
2023-04-02T19:05:42.570Z,7.33
2023-04-02T19:08:28.879Z,9.23
2023-04-02T19:11:04.839Z,7.13
2023-04-02T19:13:33.344Z,8.33
2023-04-02T19:16:19.548Z,8.27
2023-04-02T19:18:52.410Z,6.70
2023-04-02T19:21:25.154Z,6.87
2023-04-02T19:24:04.633Z,8.27
2023-04-02T19:26:37.964Z,7.20
2023-04-02T19:29:14.189Z,8.03
2023-04-02T19:31:50.307Z,13.27
2023-04-02T19:34:20.700Z,11.67
2023-04-02T19:36:51.592Z,8.70
2023-04-02T19:39:36.421Z,8.10
2023-04-02T19:42:06.311Z,10.83
2023-04-02T19:44:34.794Z,12.13
2023-04-02T19:47:02.723Z,10.83
2023-04-02T19:49:33.075Z,10.17
2023-04-02T19:52:01.636Z,12.03
2023-04-02T19:54:31.246Z,12.03
2023-04-02T19:57:00.729Z,11.17
2023-04-02T19:59:30.018Z,16.33
2023-04-02T20:01:59.856Z,11.03
2023-04-02T20:04:30.414Z,12.53
2023-04-02T20:06:59.969Z,9.77
2023-04-02T20:09:29.497Z,11.83
2023-04-02T20:11:57.718Z,13.70
2023-04-02T20:14:26.262Z,10.77
2023-04-02T20:16:54.912Z,8.37
2023-04-02T20:19:24.555Z,8.40
2023-04-02T20:21:53.240Z,10.23
2023-04-02T20:24:21.724Z,9.63
2023-04-02T20:26:50.509Z,11.23
2023-04-02T20:29:18.835Z,10.20
2023-04-02T20:31:47.658Z,15.30
2023-04-02T20:34:15.774Z,14.30
2023-04-02T20:36:45.980Z,10.33
2023-04-02T20:39:15.989Z,11.47
2023-04-02T20:41:44.690Z,8.93
2023-04-02T20:44:13.622Z,7.73
2023-04-02T20:46:42.240Z,7.53
2023-04-02T20:49:10.186Z,6.23
2023-04-02T20:51:39.050Z,8.83
2023-04-02T20:54:06.900Z,7.90
2023-04-02T20:56:35.223Z,6.93
2023-04-02T20:59:03.871Z,10.20
2023-04-02T21:01:31.771Z,8.27
2023-04-02T21:04:01.031Z,8.40
2023-04-02T21:06:30.784Z,8.13
2023-04-02T21:08:59.220Z,13.80
2023-04-02T21:11:28.506Z,10.97
2023-04-02T21:13:57.151Z,13.30
2023-04-02T21:16:28.438Z,9.23
2023-04-02T21:18:58.888Z,11.00
2023-04-02T21:21:28.166Z,11.03
2023-04-02T21:23:58.383Z,11.60
2023-04-02T21:26:27.089Z,10.10
2023-04-02T21:28:55.876Z,10.10
2023-04-02T21:31:25.815Z,8.40
2023-04-02T21:33:55.392Z,7.93
2023-04-02T21:38:52.155Z,11.93
2023-04-02T21:43:48.915Z,14.73
2023-04-02T21:46:18.231Z,14.07
2023-04-02T21:48:47.086Z,14.40
2023-04-02T21:51:17.316Z,11.20
2023-04-02T21:53:46.121Z,10.93
2023-04-02T21:56:16.056Z,12.00
2023-04-02T21:58:45.211Z,13.60
2023-04-02T22:01:26.086Z,14.00
2023-04-02T22:03:44.877Z,31.20
2023-04-02T22:06:14.861Z,47.50
2023-04-02T22:08:43.851Z,17.50
2023-04-02T22:11:16.917Z,21.90
2023-04-02T22:13:46.415Z,14.03
2023-04-02T22:18:42.382Z,13.08
2023-04-02T22:21:11.750Z,12.00
2023-04-02T22:23:40.159Z,11.00
2023-04-02T22:26:09.187Z,16.40
2023-04-02T22:28:37.580Z,18.50
2023-04-02T22:31:07.690Z,22.37
2023-04-02T22:33:36.865Z,20.83
2023-04-02T22:36:05.455Z,18.80
2023-04-02T22:38:34.867Z,19.37
2023-04-02T22:41:17.084Z,19.80
2023-04-02T22:43:46.257Z,41.17
2023-04-02T22:46:15.977Z,33.23
2023-04-02T22:48:45.005Z,28.03
2023-04-02T22:51:13.691Z,19.03
2023-04-02T22:53:43.609Z,16.17
2023-04-02T22:56:13.620Z,16.27
2023-04-02T22:58:42.473Z,14.80
2023-04-02T23:01:18.678Z,12.27
2023-04-02T23:03:46.734Z,17.40
2023-04-02T23:06:16.048Z,10.30
2023-04-02T23:08:44.567Z,12.20
2023-04-02T23:11:14.500Z,12.27
2023-04-02T23:13:43.214Z,7.93
2023-04-02T23:16:13.292Z,10.47
2023-04-02T23:18:42.684Z,9.00
2023-04-02T23:21:11.082Z,11.90
2023-04-02T23:23:39.646Z,9.70
2023-04-02T23:26:09.485Z,6.13
2023-04-02T23:28:38.734Z,6.47
2023-04-02T23:31:08.093Z,6.57
2023-04-02T23:33:36.756Z,5.93
2023-04-02T23:36:15.494Z,6.53
2023-04-02T23:38:44.097Z,5.73
2023-04-02T23:41:16.872Z,5.70
2023-04-02T23:43:45.054Z,6.97
2023-04-02T23:46:13.560Z,6.00
2023-04-02T23:48:41.860Z,5.63
2023-04-02T23:51:10.259Z,6.77
2023-04-02T23:53:38.210Z,6.93
2023-04-02T23:56:06.929Z,6.37
2023-04-02T23:58:35.482Z,8.00
